sensor_id;sensor_type;location;lat;lon;timestamp;temperature;humidity
30280;DHT22;17097;50.916;5.344;2023-05-15T00:01:59;15.10;99.90
30280;DHT22;17097;50.916;5.344;2023-05-15T00:04:26;15.20;99.90
30280;DHT22;17097;50.916;5.344;2023-05-15T00:06:52;15.00;99.90
30280;DHT22;17097;50.916;5.344;2023-05-15T00:09:21;15.00;99.90
30280;DHT22;17097;50.916;5.344;2023-05-15T00:11:47;15.00;99.90
30280;DHT22;17097;50.916;5.344;2023-05-15T00:14:13;14.90;99.90
30280;DHT22;17097;50.916;5.344;2023-05-15T00:16:38;14.70;99.90
30280;DHT22;17097;50.916;5.344;2023-05-15T00:19:05;14.70;99.90
30280;DHT22;17097;50.916;5.344;2023-05-15T00:21:31;14.60;99.90
30280;DHT22;17097;50.916;5.344;2023-05-15T00:23:57;14.30;99.90
30280;DHT22;17097;50.916;5.344;2023-05-15T00:26:23;14.20;99.90
30280;DHT22;17097;50.916;5.344;2023-05-15T00:28:50;14.40;99.90
30280;DHT22;17097;50.916;5.344;2023-05-15T00:31:16;14.40;99.90
30280;DHT22;17097;50.916;5.344;2023-05-15T00:33:42;14.50;99.90
30280;DHT22;17097;50.916;5.344;2023-05-15T00:36:08;14.40;99.90
30280;DHT22;17097;50.916;5.344;2023-05-15T00:38:34;14.20;99.90
30280;DHT22;17097;50.916;5.344;2023-05-15T00:41:00;14.30;99.90
30280;DHT22;17097;50.916;5.344;2023-05-15T00:43:27;14.50;99.90
30280;DHT22;17097;50.916;5.344;2023-05-15T00:45:56;14.30;99.90
30280;DHT22;17097;50.916;5.344;2023-05-15T00:48:22;14.10;99.90
30280;DHT22;17097;50.916;5.344;2023-05-15T00:50:52;14.00;99.90
30280;DHT22;17097;50.916;5.344;2023-05-15T00:53:18;13.90;99.90
30280;DHT22;17097;50.916;5.344;2023-05-15T00:55:49;14.00;99.90
30280;DHT22;17097;50.916;5.344;2023-05-15T00:58:17;14.00;99.90
30280;DHT22;17097;50.916;5.344;2023-05-15T01:00:47;13.90;99.90
30280;DHT22;17097;50.916;5.344;2023-05-15T01:03:14;14.00;99.90
30280;DHT22;17097;50.916;5.344;2023-05-15T01:05:40;14.00;99.90
30280;DHT22;17097;50.916;5.344;2023-05-15T01:08:31;13.90;99.90
30280;DHT22;17097;50.916;5.344;2023-05-15T01:11:02;13.90;99.90
30280;DHT22;17097;50.916;5.344;2023-05-15T01:13:28;13.90;99.90
30280;DHT22;17097;50.916;5.344;2023-05-15T01:15:55;13.70;99.90
30280;DHT22;17097;50.916;5.344;2023-05-15T01:18:21;13.80;99.90
30280;DHT22;17097;50.916;5.344;2023-05-15T01:28:38;13.50;99.90
30280;DHT22;17097;50.916;5.344;2023-05-15T01:31:14;13.50;99.90
30280;DHT22;17097;50.916;5.344;2023-05-15T01:33:44;13.50;99.90
30280;DHT22;17097;50.916;5.344;2023-05-15T01:38:53;13.50;99.90
30280;DHT22;17097;50.916;5.344;2023-05-15T01:43:56;13.10;99.90
30280;DHT22;17097;50.916;5.344;2023-05-15T01:46:26;13.20;99.90
30280;DHT22;17097;50.916;5.344;2023-05-15T01:48:54;13.20;99.90
30280;DHT22;17097;50.916;5.344;2023-05-15T01:51:21;13.30;99.90
30280;DHT22;17097;50.916;5.344;2023-05-15T01:53:48;13.50;99.90
30280;DHT22;17097;50.916;5.344;2023-05-15T01:56:16;13.40;99.90
30280;DHT22;17097;50.916;5.344;2023-05-15T01:58:44;13.30;99.90
30280;DHT22;17097;50.916;5.344;2023-05-15T02:01:12;13.30;99.90
30280;DHT22;17097;50.916;5.344;2023-05-15T02:03:39;13.30;99.90
30280;DHT22;17097;50.916;5.344;2023-05-15T02:06:06;13.30;99.90
30280;DHT22;17097;50.916;5.344;2023-05-15T02:08:33;13.40;99.90
30280;DHT22;17097;50.916;5.344;2023-05-15T02:11:01;13.40;99.90
30280;DHT22;17097;50.916;5.344;2023-05-15T02:13:30;13.50;99.90
30280;DHT22;17097;50.916;5.344;2023-05-15T02:15:57;13.50;99.90
30280;DHT22;17097;50.916;5.344;2023-05-15T02:18:23;13.40;99.90
30280;DHT22;17097;50.916;5.344;2023-05-15T02:20:49;13.40;99.90
30280;DHT22;17097;50.916;5.344;2023-05-15T02:23:15;13.40;99.90
30280;DHT22;17097;50.916;5.344;2023-05-15T02:26:02;13.30;99.90
30280;DHT22;17097;50.916;5.344;2023-05-15T02:34:22;13.30;99.90
30280;DHT22;17097;50.916;5.344;2023-05-15T02:36:52;13.30;99.90
30280;DHT22;17097;50.916;5.344;2023-05-15T02:39:19;13.20;99.90
30280;DHT22;17097;50.916;5.344;2023-05-15T02:41:48;13.20;99.90
30280;DHT22;17097;50.916;5.344;2023-05-15T02:44:16;13.20;99.90
30280;DHT22;17097;50.916;5.344;2023-05-15T02:46:43;13.20;99.90
30280;DHT22;17097;50.916;5.344;2023-05-15T02:49:10;13.10;99.90
30280;DHT22;17097;50.916;5.344;2023-05-15T02:51:37;13.10;99.90
30280;DHT22;17097;50.916;5.344;2023-05-15T02:54:03;13.20;99.90
30280;DHT22;17097;50.916;5.344;2023-05-15T02:56:29;13.10;99.90
30280;DHT22;17097;50.916;5.344;2023-05-15T02:58:55;13.20;99.90
30280;DHT22;17097;50.916;5.344;2023-05-15T03:01:21;13.10;99.90
30280;DHT22;17097;50.916;5.344;2023-05-15T03:03:47;13.10;99.90
30280;DHT22;17097;50.916;5.344;2023-05-15T03:06:13;13.30;99.90
30280;DHT22;17097;50.916;5.344;2023-05-15T03:08:40;13.20;99.90
30280;DHT22;17097;50.916;5.344;2023-05-15T03:11:05;13.00;99.90
30280;DHT22;17097;50.916;5.344;2023-05-15T03:13:31;12.90;99.90
30280;DHT22;17097;50.916;5.344;2023-05-15T03:15:57;12.90;99.90
30280;DHT22;17097;50.916;5.344;2023-05-15T03:18:25;12.90;99.90
30280;DHT22;17097;50.916;5.344;2023-05-15T03:20:51;12.80;99.90
30280;DHT22;17097;50.916;5.344;2023-05-15T03:23:19;12.70;99.90
30280;DHT22;17097;50.916;5.344;2023-05-15T03:25:45;12.60;99.90
30280;DHT22;17097;50.916;5.344;2023-05-15T03:28:11;12.60;99.90
30280;DHT22;17097;50.916;5.344;2023-05-15T03:30:36;12.60;99.90
30280;DHT22;17097;50.916;5.344;2023-05-15T03:33:02;12.50;99.90
30280;DHT22;17097;50.916;5.344;2023-05-15T03:35:29;12.50;99.90
30280;DHT22;17097;50.916;5.344;2023-05-15T03:37:56;12.50;99.90
30280;DHT22;17097;50.916;5.344;2023-05-15T03:40:22;12.60;99.90
30280;DHT22;17097;50.916;5.344;2023-05-15T03:42:48;12.70;99.90
30280;DHT22;17097;50.916;5.344;2023-05-15T03:45:17;12.40;99.90
30280;DHT22;17097;50.916;5.344;2023-05-15T03:47:43;12.40;99.90
30280;DHT22;17097;50.916;5.344;2023-05-15T03:50:12;12.30;99.90
30280;DHT22;17097;50.916;5.344;2023-05-15T03:52:38;12.30;99.90
30280;DHT22;17097;50.916;5.344;2023-05-15T03:55:04;12.20;99.90
30280;DHT22;17097;50.916;5.344;2023-05-15T03:57:30;12.40;99.90
30280;DHT22;17097;50.916;5.344;2023-05-15T03:59:57;12.20;99.90
30280;DHT22;17097;50.916;5.344;2023-05-15T04:02:23;12.10;99.90
30280;DHT22;17097;50.916;5.344;2023-05-15T04:04:49;12.10;99.90
30280;DHT22;17097;50.916;5.344;2023-05-15T04:07:16;12.00;99.90
30280;DHT22;17097;50.916;5.344;2023-05-15T04:09:42;12.00;99.90
30280;DHT22;17097;50.916;5.344;2023-05-15T04:12:11;12.00;99.90
30280;DHT22;17097;50.916;5.344;2023-05-15T04:14:39;12.00;99.90
30280;DHT22;17097;50.916;5.344;2023-05-15T04:17:05;12.20;99.90
30280;DHT22;17097;50.916;5.344;2023-05-15T04:19:30;12.00;99.90
30280;DHT22;17097;50.916;5.344;2023-05-15T04:21:56;11.80;99.90
30280;DHT22;17097;50.916;5.344;2023-05-15T04:24:22;11.90;99.90
30280;DHT22;17097;50.916;5.344;2023-05-15T04:26:48;12.10;99.90
30280;DHT22;17097;50.916;5.344;2023-05-15T04:29:14;12.30;99.90
30280;DHT22;17097;50.916;5.344;2023-05-15T04:31:40;12.40;99.90
30280;DHT22;17097;50.916;5.344;2023-05-15T04:34:07;12.40;99.90
30280;DHT22;17097;50.916;5.344;2023-05-15T04:36:32;12.30;99.90
30280;DHT22;17097;50.916;5.344;2023-05-15T04:39:01;12.30;99.90
30280;DHT22;17097;50.916;5.344;2023-05-15T04:41:27;12.50;99.90
30280;DHT22;17097;50.916;5.344;2023-05-15T04:43:54;12.30;99.90
30280;DHT22;17097;50.916;5.344;2023-05-15T04:46:20;12.40;99.90
30280;DHT22;17097;50.916;5.344;2023-05-15T04:48:46;12.30;99.90
30280;DHT22;17097;50.916;5.344;2023-05-15T04:51:11;12.30;99.90
30280;DHT22;17097;50.916;5.344;2023-05-15T04:53:37;12.40;99.90
30280;DHT22;17097;50.916;5.344;2023-05-15T04:56:03;12.60;99.90
30280;DHT22;17097;50.916;5.344;2023-05-15T04:58:29;12.70;99.90
30280;DHT22;17097;50.916;5.344;2023-05-15T05:00:55;12.70;99.90
30280;DHT22;17097;50.916;5.344;2023-05-15T05:03:23;12.70;99.90
30280;DHT22;17097;50.916;5.344;2023-05-15T05:05:49;12.70;99.90
30280;DHT22;17097;50.916;5.344;2023-05-15T05:08:14;12.70;99.90
30280;DHT22;17097;50.916;5.344;2023-05-15T05:10:40;12.80;99.90
30280;DHT22;17097;50.916;5.344;2023-05-15T05:13:09;12.80;99.90
30280;DHT22;17097;50.916;5.344;2023-05-15T05:15:35;12.80;99.90
30280;DHT22;17097;50.916;5.344;2023-05-15T05:18:01;12.80;99.90
30280;DHT22;17097;50.916;5.344;2023-05-15T05:20:27;12.80;99.90
30280;DHT22;17097;50.916;5.344;2023-05-15T05:22:52;12.50;99.90
30280;DHT22;17097;50.916;5.344;2023-05-15T05:25:20;12.70;99.90
30280;DHT22;17097;50.916;5.344;2023-05-15T05:27:46;12.70;99.90
30280;DHT22;17097;50.916;5.344;2023-05-15T05:30:14;12.70;99.90
30280;DHT22;17097;50.916;5.344;2023-05-15T05:32:40;12.60;99.90
30280;DHT22;17097;50.916;5.344;2023-05-15T05:35:08;12.60;99.90
30280;DHT22;17097;50.916;5.344;2023-05-15T05:37:34;12.50;99.90
30280;DHT22;17097;50.916;5.344;2023-05-15T05:40:00;12.50;99.90
30280;DHT22;17097;50.916;5.344;2023-05-15T05:42:27;13.20;99.90
30280;DHT22;17097;50.916;5.344;2023-05-15T05:44:55;13.30;99.90
30280;DHT22;17097;50.916;5.344;2023-05-15T05:47:23;13.30;99.90
30280;DHT22;17097;50.916;5.344;2023-05-15T05:49:49;13.00;99.90
30280;DHT22;17097;50.916;5.344;2023-05-15T05:52:15;12.90;99.90
30280;DHT22;17097;50.916;5.344;2023-05-15T05:54:43;12.90;99.90
30280;DHT22;17097;50.916;5.344;2023-05-15T05:57:12;13.00;99.90
30280;DHT22;17097;50.916;5.344;2023-05-15T05:59:38;13.10;99.90
30280;DHT22;17097;50.916;5.344;2023-05-15T06:02:04;13.10;99.90
30280;DHT22;17097;50.916;5.344;2023-05-15T06:04:31;13.10;99.90
30280;DHT22;17097;50.916;5.344;2023-05-15T06:06:58;13.10;99.90
30280;DHT22;17097;50.916;5.344;2023-05-15T06:09:26;13.30;99.90
30280;DHT22;17097;50.916;5.344;2023-05-15T06:11:52;13.20;99.90
30280;DHT22;17097;50.916;5.344;2023-05-15T06:14:18;13.00;99.90
30280;DHT22;17097;50.916;5.344;2023-05-15T06:16:46;12.90;99.90
30280;DHT22;17097;50.916;5.344;2023-05-15T06:19:12;13.00;99.90
30280;DHT22;17097;50.916;5.344;2023-05-15T06:21:38;13.20;99.90
30280;DHT22;17097;50.916;5.344;2023-05-15T06:24:04;13.40;99.90
30280;DHT22;17097;50.916;5.344;2023-05-15T06:26:30;13.40;99.90
30280;DHT22;17097;50.916;5.344;2023-05-15T06:28:56;13.20;99.90
30280;DHT22;17097;50.916;5.344;2023-05-15T06:31:22;13.30;99.90
30280;DHT22;17097;50.916;5.344;2023-05-15T06:33:48;13.40;99.90
30280;DHT22;17097;50.916;5.344;2023-05-15T06:36:14;13.40;99.90
30280;DHT22;17097;50.916;5.344;2023-05-15T06:38:41;13.50;99.90
30280;DHT22;17097;50.916;5.344;2023-05-15T06:41:06;13.60;99.90
30280;DHT22;17097;50.916;5.344;2023-05-15T06:43:35;13.70;99.90
30280;DHT22;17097;50.916;5.344;2023-05-15T06:46:01;13.60;99.90
30280;DHT22;17097;50.916;5.344;2023-05-15T06:48:27;13.50;99.90
30280;DHT22;17097;50.916;5.344;2023-05-15T06:50:52;13.50;99.90
30280;DHT22;17097;50.916;5.344;2023-05-15T06:53:18;13.60;99.90
30280;DHT22;17097;50.916;5.344;2023-05-15T06:55:45;13.60;99.90
30280;DHT22;17097;50.916;5.344;2023-05-15T06:58:15;13.80;99.90
30280;DHT22;17097;50.916;5.344;2023-05-15T07:00:42;14.10;99.90
30280;DHT22;17097;50.916;5.344;2023-05-15T07:03:09;14.10;99.90
30280;DHT22;17097;50.916;5.344;2023-05-15T07:05:37;14.30;99.90
30280;DHT22;17097;50.916;5.344;2023-05-15T07:08:02;14.20;99.90
30280;DHT22;17097;50.916;5.344;2023-05-15T07:10:28;14.30;99.90
30280;DHT22;17097;50.916;5.344;2023-05-15T07:12:54;14.50;99.90
30280;DHT22;17097;50.916;5.344;2023-05-15T07:15:20;14.60;99.90
30280;DHT22;17097;50.916;5.344;2023-05-15T07:17:48;14.70;99.90
30280;DHT22;17097;50.916;5.344;2023-05-15T07:20:17;14.60;99.90
30280;DHT22;17097;50.916;5.344;2023-05-15T07:22:42;14.70;99.90
30280;DHT22;17097;50.916;5.344;2023-05-15T07:25:08;14.90;99.90
30280;DHT22;17097;50.916;5.344;2023-05-15T07:27:35;15.40;99.90
30280;DHT22;17097;50.916;5.344;2023-05-15T07:30:02;15.70;99.90
30280;DHT22;17097;50.916;5.344;2023-05-15T07:32:29;15.90;99.90
30280;DHT22;17097;50.916;5.344;2023-05-15T07:34:55;15.90;99.90
30280;DHT22;17097;50.916;5.344;2023-05-15T07:37:21;15.80;99.90
30280;DHT22;17097;50.916;5.344;2023-05-15T07:39:47;15.80;99.90
30280;DHT22;17097;50.916;5.344;2023-05-15T07:42:13;16.10;99.90
30280;DHT22;17097;50.916;5.344;2023-05-15T07:44:39;16.20;99.90
30280;DHT22;17097;50.916;5.344;2023-05-15T07:47:06;16.10;99.90
30280;DHT22;17097;50.916;5.344;2023-05-15T07:49:34;16.30;99.90
30280;DHT22;17097;50.916;5.344;2023-05-15T07:52:00;16.80;99.90
30280;DHT22;17097;50.916;5.344;2023-05-15T07:54:26;17.00;99.90
30280;DHT22;17097;50.916;5.344;2023-05-15T07:56:56;17.30;99.90
30280;DHT22;17097;50.916;5.344;2023-05-15T07:59:23;17.50;99.90
30280;DHT22;17097;50.916;5.344;2023-05-15T08:01:49;17.30;99.90
30280;DHT22;17097;50.916;5.344;2023-05-15T08:04:14;17.50;99.90
30280;DHT22;17097;50.916;5.344;2023-05-15T08:06:44;17.70;99.90
30280;DHT22;17097;50.916;5.344;2023-05-15T08:09:12;17.70;99.90
30280;DHT22;17097;50.916;5.344;2023-05-15T08:11:38;17.80;99.90
30280;DHT22;17097;50.916;5.344;2023-05-15T08:14:04;17.80;99.90
30280;DHT22;17097;50.916;5.344;2023-05-15T08:16:30;18.00;99.90
30280;DHT22;17097;50.916;5.344;2023-05-15T08:18:56;18.10;99.90
30280;DHT22;17097;50.916;5.344;2023-05-15T08:21:27;18.50;99.90
30280;DHT22;17097;50.916;5.344;2023-05-15T08:23:59;18.30;99.90
30280;DHT22;17097;50.916;5.344;2023-05-15T08:26:25;18.30;99.90
30280;DHT22;17097;50.916;5.344;2023-05-15T08:28:51;18.60;99.90
30280;DHT22;17097;50.916;5.344;2023-05-15T08:31:17;18.70;99.90
30280;DHT22;17097;50.916;5.344;2023-05-15T08:33:43;18.50;99.90
30280;DHT22;17097;50.916;5.344;2023-05-15T08:36:09;18.40;99.90
30280;DHT22;17097;50.916;5.344;2023-05-15T08:38:35;18.70;99.90
30280;DHT22;17097;50.916;5.344;2023-05-15T08:41:06;18.90;99.90
30280;DHT22;17097;50.916;5.344;2023-05-15T08:43:35;18.70;99.90
30280;DHT22;17097;50.916;5.344;2023-05-15T08:46:01;19.40;99.90
30280;DHT22;17097;50.916;5.344;2023-05-15T08:48:28;19.80;99.90
30280;DHT22;17097;50.916;5.344;2023-05-15T08:50:56;19.90;99.90
30280;DHT22;17097;50.916;5.344;2023-05-15T08:53:23;20.20;99.90
30280;DHT22;17097;50.916;5.344;2023-05-15T08:55:49;20.60;99.90
30280;DHT22;17097;50.916;5.344;2023-05-15T08:58:15;20.90;99.90
30280;DHT22;17097;50.916;5.344;2023-05-15T09:00:46;21.30;99.90
30280;DHT22;17097;50.916;5.344;2023-05-15T09:03:15;22.10;99.90
30280;DHT22;17097;50.916;5.344;2023-05-15T09:05:42;22.50;99.90
30280;DHT22;17097;50.916;5.344;2023-05-15T09:08:09;22.90;99.90
30280;DHT22;17097;50.916;5.344;2023-05-15T09:10:34;23.70;99.50
30280;DHT22;17097;50.916;5.344;2023-05-15T09:13:04;24.10;98.10
30280;DHT22;17097;50.916;5.344;2023-05-15T09:15:34;24.10;97.00
30280;DHT22;17097;50.916;5.344;2023-05-15T09:18:01;24.60;94.80
30280;DHT22;17097;50.916;5.344;2023-05-15T09:20:35;24.40;94.30
30280;DHT22;17097;50.916;5.344;2023-05-15T09:23:04;24.30;94.80
30280;DHT22;17097;50.916;5.344;2023-05-15T09:25:37;23.70;96.20
30280;DHT22;17097;50.916;5.344;2023-05-15T09:28:09;23.30;98.80
30280;DHT22;17097;50.916;5.344;2023-05-15T09:30:43;23.80;97.60
30280;DHT22;17097;50.916;5.344;2023-05-15T09:33:09;23.80;97.40
30280;DHT22;17097;50.916;5.344;2023-05-15T09:35:37;23.70;97.20
30280;DHT22;17097;50.916;5.344;2023-05-15T09:38:08;23.80;97.70
30280;DHT22;17097;50.916;5.344;2023-05-15T09:40:35;24.10;92.80
30280;DHT22;17097;50.916;5.344;2023-05-15T09:43:00;24.00;94.40
30280;DHT22;17097;50.916;5.344;2023-05-15T09:45:27;24.00;96.10
30280;DHT22;17097;50.916;5.344;2023-05-15T09:47:58;24.30;95.30
30280;DHT22;17097;50.916;5.344;2023-05-15T09:50:34;24.80;96.30
30280;DHT22;17097;50.916;5.344;2023-05-15T09:53:01;25.10;93.90
30280;DHT22;17097;50.916;5.344;2023-05-15T09:55:29;25.00;94.50
30280;DHT22;17097;50.916;5.344;2023-05-15T09:58:10;24.60;95.20
30280;DHT22;17097;50.916;5.344;2023-05-15T10:00:37;24.60;95.30
30280;DHT22;17097;50.916;5.344;2023-05-15T10:03:05;24.40;94.60
30280;DHT22;17097;50.916;5.344;2023-05-15T10:05:31;25.20;92.90
30280;DHT22;17097;50.916;5.344;2023-05-15T10:07:58;25.50;93.50
30280;DHT22;17097;50.916;5.344;2023-05-15T10:10:25;25.50;93.30
30280;DHT22;17097;50.916;5.344;2023-05-15T10:12:56;25.70;92.40
30280;DHT22;17097;50.916;5.344;2023-05-15T10:15:29;25.30;95.20
30280;DHT22;17097;50.916;5.344;2023-05-15T10:17:55;25.90;92.00
30280;DHT22;17097;50.916;5.344;2023-05-15T10:20:26;26.30;92.10
30280;DHT22;17097;50.916;5.344;2023-05-15T10:22:54;26.40;91.40
30280;DHT22;17097;50.916;5.344;2023-05-15T10:28:27;26.60;89.30
30280;DHT22;17097;50.916;5.344;2023-05-15T10:30:55;27.00;87.60
30280;DHT22;17097;50.916;5.344;2023-05-15T10:33:25;26.50;90.00
30280;DHT22;17097;50.916;5.344;2023-05-15T10:35:52;26.40;88.30
30280;DHT22;17097;50.916;5.344;2023-05-15T10:38:20;26.60;85.80
30280;DHT22;17097;50.916;5.344;2023-05-15T10:40:46;26.60;89.30
30280;DHT22;17097;50.916;5.344;2023-05-15T10:43:13;25.90;90.10
30280;DHT22;17097;50.916;5.344;2023-05-15T10:45:39;25.90;90.10
30280;DHT22;17097;50.916;5.344;2023-05-15T10:48:06;26.20;87.70
30280;DHT22;17097;50.916;5.344;2023-05-15T10:50:36;26.40;88.50
30280;DHT22;17097;50.916;5.344;2023-05-15T10:53:02;26.40;88.00
30280;DHT22;17097;50.916;5.344;2023-05-15T10:55:30;26.30;87.80
30280;DHT22;17097;50.916;5.344;2023-05-15T10:57:56;26.40;87.40
30280;DHT22;17097;50.916;5.344;2023-05-15T11:02:48;25.80;90.20
30280;DHT22;17097;50.916;5.344;2023-05-15T11:05:15;24.90;93.00
30280;DHT22;17097;50.916;5.344;2023-05-15T11:07:40;24.40;95.10
30280;DHT22;17097;50.916;5.344;2023-05-15T11:12:57;24.00;95.40
30280;DHT22;17097;50.916;5.344;2023-05-15T11:15:26;23.50;95.80
30280;DHT22;17097;50.916;5.344;2023-05-15T11:18:05;23.00;98.60
30280;DHT22;17097;50.916;5.344;2023-05-15T11:20:33;23.40;99.20
30280;DHT22;17097;50.916;5.344;2023-05-15T11:23:02;23.90;97.10
30280;DHT22;17097;50.916;5.344;2023-05-15T11:25:31;24.20;96.20
30280;DHT22;17097;50.916;5.344;2023-05-15T11:27:57;24.30;96.40
30280;DHT22;17097;50.916;5.344;2023-05-15T11:30:58;24.30;96.80
30280;DHT22;17097;50.916;5.344;2023-05-15T11:33:24;24.60;96.80
30280;DHT22;17097;50.916;5.344;2023-05-15T11:35:58;24.20;97.40
30280;DHT22;17097;50.916;5.344;2023-05-15T11:38:25;24.10;97.20
30280;DHT22;17097;50.916;5.344;2023-05-15T11:40:55;24.00;97.10
30280;DHT22;17097;50.916;5.344;2023-05-15T11:46:08;24.10;97.50
30280;DHT22;17097;50.916;5.344;2023-05-15T11:48:38;24.30;95.90
30280;DHT22;17097;50.916;5.344;2023-05-15T11:51:10;24.10;96.10
30280;DHT22;17097;50.916;5.344;2023-05-15T11:53:38;23.70;97.70
30280;DHT22;17097;50.916;5.344;2023-05-15T11:56:04;23.60;97.40
30280;DHT22;17097;50.916;5.344;2023-05-15T11:58:30;23.30;97.50
30280;DHT22;17097;50.916;5.344;2023-05-15T12:00:56;23.20;96.70
30280;DHT22;17097;50.916;5.344;2023-05-15T12:03:31;23.00;97.80
30280;DHT22;17097;50.916;5.344;2023-05-15T12:05:57;23.40;98.60
30280;DHT22;17097;50.916;5.344;2023-05-15T12:08:35;23.30;98.10
30280;DHT22;17097;50.916;5.344;2023-05-15T12:11:02;23.30;98.60
30280;DHT22;17097;50.916;5.344;2023-05-15T12:13:30;23.30;99.10
30280;DHT22;17097;50.916;5.344;2023-05-15T12:15:56;23.40;99.50
30280;DHT22;17097;50.916;5.344;2023-05-15T12:18:25;22.50;99.80
30280;DHT22;17097;50.916;5.344;2023-05-15T12:20:52;22.10;99.90
30280;DHT22;17097;50.916;5.344;2023-05-15T12:23:21;22.00;99.90
30280;DHT22;17097;50.916;5.344;2023-05-15T12:25:54;21.80;99.90
30280;DHT22;17097;50.916;5.344;2023-05-15T12:28:25;21.50;99.90
30280;DHT22;17097;50.916;5.344;2023-05-15T12:30:53;21.80;99.90
30280;DHT22;17097;50.916;5.344;2023-05-15T12:33:20;21.70;99.90
30280;DHT22;17097;50.916;5.344;2023-05-15T12:35:53;21.70;99.90
30280;DHT22;17097;50.916;5.344;2023-05-15T12:38:21;22.00;99.90
30280;DHT22;17097;50.916;5.344;2023-05-15T12:40:52;21.90;99.90
30280;DHT22;17097;50.916;5.344;2023-05-15T12:43:23;21.80;99.90
30280;DHT22;17097;50.916;5.344;2023-05-15T12:45:51;21.90;99.90
30280;DHT22;17097;50.916;5.344;2023-05-15T12:48:18;22.10;99.90
30280;DHT22;17097;50.916;5.344;2023-05-15T12:50:44;22.00;99.90
30280;DHT22;17097;50.916;5.344;2023-05-15T12:53:15;22.00;99.90
30280;DHT22;17097;50.916;5.344;2023-05-15T12:55:44;21.80;99.90
30280;DHT22;17097;50.916;5.344;2023-05-15T12:58:11;21.30;99.90
30280;DHT22;17097;50.916;5.344;2023-05-15T13:00:40;21.50;99.90
30280;DHT22;17097;50.916;5.344;2023-05-15T13:03:09;21.40;99.90
30280;DHT22;17097;50.916;5.344;2023-05-15T13:05:40;21.20;99.90
30280;DHT22;17097;50.916;5.344;2023-05-15T13:08:14;21.20;99.90
30280;DHT22;17097;50.916;5.344;2023-05-15T13:10:44;20.70;99.90
30280;DHT22;17097;50.916;5.344;2023-05-15T13:13:12;20.60;99.90
30280;DHT22;17097;50.916;5.344;2023-05-15T13:15:43;20.30;99.90
30280;DHT22;17097;50.916;5.344;2023-05-15T13:18:14;20.00;99.90
30280;DHT22;17097;50.916;5.344;2023-05-15T13:20:49;20.10;99.90
30280;DHT22;17097;50.916;5.344;2023-05-15T13:23:20;20.00;99.90
30280;DHT22;17097;50.916;5.344;2023-05-15T13:25:46;19.80;99.90
30280;DHT22;17097;50.916;5.344;2023-05-15T13:28:12;19.50;99.90
30280;DHT22;17097;50.916;5.344;2023-05-15T13:30:40;19.10;99.90
30280;DHT22;17097;50.916;5.344;2023-05-15T13:33:07;18.90;99.90
30280;DHT22;17097;50.916;5.344;2023-05-15T13:35:34;18.90;99.90
30280;DHT22;17097;50.916;5.344;2023-05-15T13:38:03;18.80;99.90
30280;DHT22;17097;50.916;5.344;2023-05-15T13:40:29;18.70;99.90
30280;DHT22;17097;50.916;5.344;2023-05-15T13:42:57;18.70;99.90
30280;DHT22;17097;50.916;5.344;2023-05-15T13:45:24;18.50;99.90
30280;DHT22;17097;50.916;5.344;2023-05-15T13:47:49;18.30;99.90
30280;DHT22;17097;50.916;5.344;2023-05-15T13:50:16;18.30;99.90
30280;DHT22;17097;50.916;5.344;2023-05-15T13:52:43;18.30;99.90
30280;DHT22;17097;50.916;5.344;2023-05-15T13:55:09;18.50;99.90
30280;DHT22;17097;50.916;5.344;2023-05-15T13:57:37;18.20;99.90
30280;DHT22;17097;50.916;5.344;2023-05-15T14:00:04;18.10;99.90
30280;DHT22;17097;50.916;5.344;2023-05-15T14:02:32;18.10;99.90
30280;DHT22;17097;50.916;5.344;2023-05-15T14:05:00;18.20;99.90
30280;DHT22;17097;50.916;5.344;2023-05-15T14:07:29;18.10;99.90
30280;DHT22;17097;50.916;5.344;2023-05-15T14:09:55;18.00;99.90
30280;DHT22;17097;50.916;5.344;2023-05-15T14:12:21;17.80;99.90
30280;DHT22;17097;50.916;5.344;2023-05-15T14:14:47;17.50;99.90
30280;DHT22;17097;50.916;5.344;2023-05-15T14:17:13;17.40;99.90
30280;DHT22;17097;50.916;5.344;2023-05-15T14:19:41;17.60;99.90
30280;DHT22;17097;50.916;5.344;2023-05-15T14:22:07;17.60;99.90
30280;DHT22;17097;50.916;5.344;2023-05-15T14:24:33;17.70;99.90
30280;DHT22;17097;50.916;5.344;2023-05-15T14:26:59;17.70;99.90
30280;DHT22;17097;50.916;5.344;2023-05-15T14:29:25;17.60;99.90
30280;DHT22;17097;50.916;5.344;2023-05-15T14:31:54;17.30;99.90
30280;DHT22;17097;50.916;5.344;2023-05-15T14:34:20;17.10;99.90
30280;DHT22;17097;50.916;5.344;2023-05-15T14:36:47;17.00;99.90
30280;DHT22;17097;50.916;5.344;2023-05-15T14:39:16;17.20;99.90
30280;DHT22;17097;50.916;5.344;2023-05-15T14:41:44;17.20;99.90
30280;DHT22;17097;50.916;5.344;2023-05-15T14:44:12;17.10;99.90
30280;DHT22;17097;50.916;5.344;2023-05-15T14:46:41;17.10;99.90
30280;DHT22;17097;50.916;5.344;2023-05-15T14:49:09;17.20;99.90
30280;DHT22;17097;50.916;5.344;2023-05-15T14:51:35;17.10;99.90
30280;DHT22;17097;50.916;5.344;2023-05-15T14:54:01;17.20;99.90
30280;DHT22;17097;50.916;5.344;2023-05-15T14:56:28;17.10;99.90
30280;DHT22;17097;50.916;5.344;2023-05-15T14:58:54;17.20;99.90
30280;DHT22;17097;50.916;5.344;2023-05-15T15:01:20;16.90;99.90
30280;DHT22;17097;50.916;5.344;2023-05-15T15:03:46;17.00;99.90
30280;DHT22;17097;50.916;5.344;2023-05-15T15:06:12;17.00;99.90
30280;DHT22;17097;50.916;5.344;2023-05-15T15:08:38;16.40;99.90
30280;DHT22;17097;50.916;5.344;2023-05-15T15:11:04;16.40;99.90
30280;DHT22;17097;50.916;5.344;2023-05-15T15:13:32;16.50;99.90
30280;DHT22;17097;50.916;5.344;2023-05-15T15:15:58;16.20;99.90
30280;DHT22;17097;50.916;5.344;2023-05-15T15:18:24;16.10;99.90
30280;DHT22;17097;50.916;5.344;2023-05-15T15:20:50;15.80;99.90
30280;DHT22;17097;50.916;5.344;2023-05-15T15:23:16;15.60;99.90
30280;DHT22;17097;50.916;5.344;2023-05-15T15:25:42;15.50;99.90
30280;DHT22;17097;50.916;5.344;2023-05-15T15:28:08;15.70;99.90
30280;DHT22;17097;50.916;5.344;2023-05-15T15:30:34;15.60;99.90
30280;DHT22;17097;50.916;5.344;2023-05-15T15:33:02;15.40;99.90
30280;DHT22;17097;50.916;5.344;2023-05-15T15:35:28;15.20;99.90
30280;DHT22;17097;50.916;5.344;2023-05-15T15:37:54;15.30;99.90
30280;DHT22;17097;50.916;5.344;2023-05-15T15:40:20;15.00;99.90
30280;DHT22;17097;50.916;5.344;2023-05-15T15:42:47;14.90;99.90
30280;DHT22;17097;50.916;5.344;2023-05-15T15:45:13;14.60;99.90
30280;DHT22;17097;50.916;5.344;2023-05-15T15:47:39;14.60;99.90
30280;DHT22;17097;50.916;5.344;2023-05-15T15:50:05;14.40;99.90
30280;DHT22;17097;50.916;5.344;2023-05-15T15:52:30;14.30;99.90
30280;DHT22;17097;50.916;5.344;2023-05-15T15:54:57;14.30;99.90
30280;DHT22;17097;50.916;5.344;2023-05-15T15:57:23;14.30;99.90
30280;DHT22;17097;50.916;5.344;2023-05-15T15:59:49;14.40;99.90
30280;DHT22;17097;50.916;5.344;2023-05-15T16:02:15;14.40;99.90